DW5225 Weather Reports


Display with metric or nautical units.
time (UTC)temp
F
wind
direction
speed
MPH
gust
MPH
rain 1hr
in
rain 24hr
in
rain mn
in
humidity
%
barometer
mb
20240526003025 48 0 0.0 0.0 0.00 0.07 0.00 90 1020.3
20240526001523 48 0 0.0 0.0 0.00 0.07 0.00 90 1020.3
20240526000032 48 0 0.0 0.0 0.00 0.07 0.00 90 1020.4
20240525234528 48 0 0.0 0.0 0.00 0.07 0.00 90 1020.5
20240525233032 48 0 0.0 0.0 0.00 0.07 0.00 91 1020.6
20240525231529 48 0 0.0 0.0 0.00 0.07 0.00 90 1020.6
20240525230045 48 0 0.0 0.0 0.00 0.07 0.00 91 1020.6
20240525224528 48 0 0.0 0.0 0.00 0.11 0.00 91 1020.6
20240525223025 49 0 0.0 0.0 0.00 0.11 0.00 91 1020.6
20240525221532 49 0 0.0 0.0 0.00 0.11 0.00 91 1020.5
20240525220034 49 0 0.0 5.0 0.00 0.11 0.00 91 1020.5
20240525214538 49 0 0.0 1.0 0.00 0.11 0.11 91 1020.4
20240525213026 50 0 0.0 0.0 0.00 0.11 0.11 91 1020.4
20240525211547 50 0 0.0 0.0 0.00 0.11 0.11 91 1020.3
20240525210027 50 0 0.0 0.0 0.00 0.11 0.11 91 1020.3
20240525204527 51 0 0.0 0.0 0.00 0.11 0.11 91 1020.3
20240525203026 51 0 0.0 0.0 0.00 0.11 0.11 91 1020.3
20240525201528 51 0 0.0 1.0 0.00 0.11 0.11 90 1020.2
20240525200026 51 0 0.0 0.0 0.00 0.11 0.11 90 1020.3
20240525194534 51 0 0.0 0.0 0.00 0.11 0.11 90 1020.2
20240525193028 51 0 0.0 0.0 0.00 0.11 0.11 90 1020.1
20240525191529 51 0 0.0 0.0 0.00 0.11 0.11 89 1019.8
20240525190036 51 0 0.0 0.0 0.02 0.11 0.11 89 1019.7
20240525184536 52 0 0.0 0.0 0.03 0.11 0.11 88 1019.4
20240525183028 52 0 0.0 3.0 0.05 0.11 0.11 88 1019.3
20240525181533 52 5 0.0 5.0 0.06 0.11 0.11 87 1019.1
20240525180030 52 346 0.0 5.0 0.04 0.09 0.09 85 1018.9
20240525174525 53 323 2.0 9.0 0.03 0.07 0.07 82 1018.9
20240525173025 54 331 0.0 10.0 0.00 0.04 0.04 78 1018.8
20240525171532 55 269 2.0 8.0 0.00 0.04 0.04 76 1018.6
20240525170028 55 306 2.0 8.0 0.00 0.04 0.04 76 1018.5
20240525164532 55 275 3.0 10.0 0.00 0.04 0.04 74 1018.5
20240525163034 56 313 3.0 11.0 0.00 0.04 0.04 74 1018.4
20240525161529 56 289 5.0 12.0 0.00 0.04 0.04 74 1018.1
20240525160030 57 304 4.0 10.0 0.00 0.04 0.04 68 1018.1
20240525154527 58 263 5.0 11.0 0.00 0.04 0.04 69 1017.9
20240525153042 58 294 3.0 10.0 0.00 0.04 0.04 67 1017.9
20240525151538 59 260 4.0 10.0 0.00 0.04 0.04 66 1017.7
20240525150034 60 240 4.0 10.0 0.00 0.04 0.04 66 1017.7
20240525144533 60 295 4.0 11.0 0.00 0.04 0.04 62 1017.8
20240525143027 59 312 4.0 9.0 0.00 0.04 0.04 63 1017.7
20240525141529 59 304 6.0 14.0 0.00 0.04 0.04 64 1017.8
20240525140037 58 306 7.0 13.0 0.00 0.04 0.04 67 1017.8
20240525134531 57 320 5.0 13.0 0.00 0.04 0.04 74 1017.9
20240525133023 57 319 4.0 13.0 0.00 0.04 0.04 74 1018.1
20240525131538 59 267 0.0 6.0 0.00 0.04 0.04 61 1018.2
20240525130044 58 0 1.0 14.0 0.00 0.04 0.04 62 1018.2
20240525124527 57 0 0.0 8.0 0.00 0.04 0.04 71 1018.1
20240525123027 57 302 2.0 9.0 0.00 0.04 0.04 73 1018.1
20240525121524 58 283 4.0 10.0 0.00 0.04 0.04 68 1017.9
20240525120031 58 319 3.0 9.0 0.00 0.04 0.04 64 1018.0
20240525114531 58 318 2.0 11.0 0.00 0.04 0.04 66 1018.1
20240525113030 57 324 6.0 11.0 0.00 0.04 0.04 68 1018.1
20240525111530 56 264 6.0 12.0 0.00 0.04 0.04 78 1018.2
20240525110029 55 270 3.0 10.0 0.00 0.04 0.04 84 1018.4
20240525104526 54 309 4.0 12.0 0.00 0.04 0.04 81 1018.5
20240525103026 56 272 4.0 10.0 0.00 0.04 0.04 79 1018.5
20240525101530 55 317 6.0 14.0 0.00 0.04 0.04 76 1018.6
20240525100034 55 294 4.0 12.0 0.00 0.04 0.04 80 1018.5
20240525094536 55 280 6.0 11.0 0.00 0.04 0.04 82 1018.7
20240525093025 54 277 4.0 10.0 0.00 0.04 0.04 84 1018.7
20240525091534 53 0 2.0 7.0 0.00 0.04 0.04 87 1018.9
20240525090039 52 279 1.0 6.0 0.00 0.04 0.04 88 1018.9
20240525084522 52 0 0.0 4.0 0.00 0.03 0.03 89 1018.9
20240525083030 52 0 0.0 4.0 0.00 0.03 0.03 89 1019.0
20240525081532 51 0 0.0 3.0 0.00 0.03 0.03 90 1018.9
20240525080048 51 0 0.0 0.0 0.00 0.03 0.03 90 1018.9
20240525074532 50 265 1.0 4.0 0.00 0.04 0.03 90 1018.9
20240525073029 50 0 0.0 4.0 0.00 0.04 0.03 90 1019.0
20240525071539 50 0 0.0 3.0 0.00 0.04 0.03 90 1019.0
20240525070046 50 0 0.0 0.0 0.00 0.04 0.03 90 1019.0
20240525064534 50 0 0.0 0.0 0.00 0.04 0.03 90 1019.0
20240525063040 50 0 0.0 1.0 0.00 0.04 0.03 91 1019.0
20240525061546 50 0 0.0 0.0 0.00 0.04 0.03 91 1019.1
20240525060054 50 0 0.0 0.0 0.00 0.04 0.03 90 1019.1
20240525054532 49 0 0.0 0.0 0.00 0.04 0.03 90 1019.1
20240525053034 49 0 0.0 0.0 0.00 0.04 0.03 91 1018.9
20240525051535 49 0 0.0 0.0 0.00 0.04 0.03 91 1019.0
20240525050051 48 0 0.0 0.0 0.00 0.04 0.03 91 1019.0
20240525044539 48 0 0.0 0.0 0.00 0.04 0.03 91 1019.1
20240525043051 48 0 0.0 0.0 0.00 0.04 0.03 91 1019.2
20240525041929 48 0 0.0 0.0 0.00 0.04 0.03 91 1019.1
20240525040106 48 0 0.0 0.0 0.00 0.04 0.03 91 1019.0
20240525034616 47 0 0.0 0.0 0.00 0.04 0.03 91 1018.9
20240525033113 47 0 0.0 0.0 0.00 0.04 0.03 91 1019.0
20240525031601 47 0 0.0 0.0 0.00 0.04 0.03 91 1019.0
20240525030048 47 0 0.0 0.0 0.00 0.04 0.03 91 1019.1
20240525024616 47 0 0.0 0.0 0.00 0.04 0.03 91 1019.1
20240525023101 47 0 0.0 0.0 0.00 0.04 0.03 91 1019.2
20240525021548 47 0 0.0 0.0 0.00 0.04 0.03 90 1019.2
20240525020049 47 0 0.0 0.0 0.00 0.04 0.03 90 1019.2
20240525014544 47 0 0.0 0.0 0.00 0.04 0.03 90 1019.1
20240525013035 48 0 0.0 0.0 0.00 0.04 0.03 90 1019.2
20240525011543 48 0 0.0 0.0 0.00 0.04 0.03 90 1019.2
20240525010041 48 0 0.0 0.0 0.00 0.04 0.03 90 1019.2
20240525004541 48 0 0.0 0.0 0.00 0.04 0.03 89 1019.2